createdAt,value
2022-10-13T00:00:12.425Z,0.00
2022-10-13T00:01:12.434Z,0.00
2022-10-13T00:02:12.363Z,0.00
2022-10-13T00:03:12.355Z,0.00
2022-10-13T00:04:12.363Z,0.00
2022-10-13T00:05:12.455Z,0.00
2022-10-13T00:06:12.312Z,0.00
2022-10-13T00:07:12.305Z,0.00
2022-10-13T00:08:12.302Z,0.00
2022-10-13T00:09:12.291Z,0.00
2022-10-13T00:10:12.272Z,0.00
2022-10-13T00:11:12.294Z,0.00
2022-10-13T00:12:12.276Z,0.00
2022-10-13T00:13:12.223Z,0.00
2022-10-13T00:14:12.248Z,0.00
2022-10-13T00:15:12.213Z,0.00
2022-10-13T00:16:12.207Z,0.00
2022-10-13T00:17:12.238Z,0.00
2022-10-13T00:18:12.175Z,0.00
2022-10-13T00:19:15.100Z,0.00
2022-10-13T00:20:12.159Z,0.00
2022-10-13T00:21:12.134Z,0.00
2022-10-13T00:22:12.197Z,0.00
2022-10-13T00:23:12.128Z,0.00
2022-10-13T00:24:12.119Z,0.00
2022-10-13T00:25:12.113Z,0.00
2022-10-13T00:26:12.117Z,0.00
2022-10-13T00:27:12.119Z,0.00
2022-10-13T00:28:12.125Z,0.00
2022-10-13T00:29:12.059Z,0.00
2022-10-13T00:30:12.053Z,0.00
2022-10-13T00:31:12.018Z,0.00
2022-10-13T00:32:12.072Z,0.00
2022-10-13T00:33:12.021Z,0.00
2022-10-13T00:34:12.014Z,0.00
2022-10-13T00:35:12.010Z,0.00
2022-10-13T00:36:11.989Z,0.00
2022-10-13T00:37:12.003Z,0.00
2022-10-13T00:38:11.949Z,0.00
2022-10-13T00:39:11.982Z,0.00
2022-10-13T00:40:11.933Z,0.00
2022-10-13T00:41:11.929Z,0.00
2022-10-13T00:42:11.890Z,0.00
2022-10-13T00:43:11.912Z,0.00
2022-10-13T00:44:11.894Z,0.00
2022-10-13T00:45:11.852Z,0.00
2022-10-13T00:46:11.864Z,0.00
2022-10-13T00:47:11.861Z,0.00
2022-10-13T00:48:11.865Z,0.00
2022-10-13T00:49:11.813Z,0.00
2022-10-13T00:50:11.821Z,0.00
2022-10-13T00:51:11.827Z,0.00
2022-10-13T00:52:11.802Z,0.00
2022-10-13T00:53:11.796Z,0.00
2022-10-13T00:54:11.793Z,0.00
2022-10-13T00:55:11.768Z,0.00
2022-10-13T00:56:11.781Z,0.00
2022-10-13T00:57:11.784Z,0.00
2022-10-13T00:58:11.734Z,0.00
2022-10-13T00:59:11.695Z,0.00
2022-10-13T01:00:11.709Z,0.00
2022-10-13T01:01:11.732Z,0.00
2022-10-13T01:02:11.732Z,0.00
2022-10-13T01:03:11.656Z,0.00
2022-10-13T01:04:11.665Z,0.00
2022-10-13T01:05:11.636Z,0.00
2022-10-13T01:06:11.649Z,0.00
2022-10-13T01:07:11.606Z,0.00
2022-10-13T01:08:11.647Z,0.00
2022-10-13T01:09:11.586Z,0.00
2022-10-13T01:10:11.576Z,0.00
2022-10-13T01:11:11.578Z,0.00
2022-10-13T01:12:11.590Z,0.00
2022-10-13T01:13:11.568Z,0.00
2022-10-13T01:14:11.591Z,0.00
2022-10-13T01:15:11.538Z,0.00
2022-10-13T01:16:11.508Z,0.00
2022-10-13T01:17:11.512Z,0.00
2022-10-13T01:18:11.483Z,0.00
2022-10-13T01:19:11.552Z,0.00
2022-10-13T01:20:11.459Z,0.00
2022-10-13T01:21:11.470Z,0.00
2022-10-13T01:22:11.442Z,0.00
2022-10-13T01:23:11.444Z,0.00
2022-10-13T01:24:11.451Z,0.00
2022-10-13T01:25:11.418Z,0.00
2022-10-13T01:26:11.418Z,0.00
2022-10-13T01:27:11.412Z,0.00
2022-10-13T01:28:11.495Z,0.00
2022-10-13T01:29:11.425Z,0.00
2022-10-13T01:30:11.359Z,0.00
2022-10-13T01:31:11.341Z,0.00
2022-10-13T01:32:11.345Z,0.00
2022-10-13T01:33:11.326Z,0.00
2022-10-13T01:34:11.345Z,0.00
2022-10-13T01:35:11.346Z,0.00
2022-10-13T01:36:11.290Z,0.00
2022-10-13T01:37:11.286Z,0.00
2022-10-13T01:38:11.298Z,0.00
2022-10-13T01:39:11.253Z,0.00
2022-10-13T01:40:11.236Z,0.00
2022-10-13T01:41:11.287Z,0.00
2022-10-13T01:42:11.347Z,0.00
2022-10-13T01:43:11.194Z,0.00
2022-10-13T01:44:11.226Z,0.00
2022-10-13T01:45:11.210Z,0.00
2022-10-13T01:46:11.210Z,0.00
2022-10-13T01:47:11.177Z,0.00
2022-10-13T01:48:11.154Z,0.00
2022-10-13T01:49:11.376Z,0.00
2022-10-13T01:50:11.161Z,0.00
2022-10-13T01:51:11.108Z,0.00
2022-10-13T01:52:11.140Z,0.00
2022-10-13T01:53:11.109Z,0.00
2022-10-13T01:54:11.087Z,0.00
2022-10-13T01:55:11.071Z,0.00
2022-10-13T01:56:11.058Z,0.00
2022-10-13T01:57:11.068Z,0.00
2022-10-13T01:58:11.082Z,0.00
2022-10-13T01:59:11.073Z,0.00
2022-10-13T02:00:11.032Z,0.00
2022-10-13T02:01:11.063Z,0.00
2022-10-13T02:02:11.008Z,0.00
2022-10-13T02:03:11.013Z,0.00
2022-10-13T02:04:10.991Z,0.00
2022-10-13T02:05:10.964Z,0.00
2022-10-13T02:06:10.941Z,0.00
2022-10-13T02:07:10.962Z,0.00
2022-10-13T02:08:10.921Z,0.00
2022-10-13T02:09:10.900Z,0.00
2022-10-13T02:10:10.912Z,0.00
2022-10-13T02:11:10.949Z,0.00
2022-10-13T02:12:10.927Z,0.00
2022-10-13T02:13:10.852Z,0.00
2022-10-13T02:14:10.842Z,0.00
2022-10-13T02:15:10.863Z,0.00
2022-10-13T02:16:10.820Z,0.00
2022-10-13T02:17:10.870Z,0.00
2022-10-13T02:18:10.827Z,0.00
2022-10-13T02:19:10.828Z,0.00
2022-10-13T02:20:10.825Z,0.00
2022-10-13T02:21:10.784Z,0.00
2022-10-13T02:22:10.775Z,0.00
2022-10-13T02:23:10.754Z,0.00
2022-10-13T02:24:10.758Z,0.00
2022-10-13T02:25:10.738Z,0.00
2022-10-13T02:26:10.735Z,0.00
2022-10-13T02:27:10.708Z,0.00
2022-10-13T02:28:10.718Z,0.00
2022-10-13T02:29:10.669Z,0.00
2022-10-13T02:30:10.667Z,0.00
2022-10-13T02:31:10.708Z,0.00
2022-10-13T02:32:10.652Z,0.00
2022-10-13T02:33:10.637Z,0.00
2022-10-13T02:34:10.630Z,0.00
2022-10-13T02:35:10.609Z,0.00
2022-10-13T02:36:10.667Z,0.00
2022-10-13T02:37:10.591Z,0.00
2022-10-13T02:38:10.580Z,0.00
2022-10-13T02:39:10.578Z,0.00
2022-10-13T02:40:10.583Z,0.00
2022-10-13T02:41:10.591Z,0.00
2022-10-13T02:42:10.552Z,0.00
2022-10-13T02:43:10.532Z,0.00
2022-10-13T02:44:10.507Z,0.00
2022-10-13T02:45:10.503Z,0.00
2022-10-13T02:46:10.564Z,0.00
2022-10-13T02:47:10.470Z,0.00
2022-10-13T02:48:10.471Z,0.00
2022-10-13T02:49:10.473Z,0.00
2022-10-13T02:50:10.445Z,0.00
2022-10-13T02:51:10.445Z,0.00
2022-10-13T02:52:10.454Z,0.00
2022-10-13T02:53:10.440Z,0.00
2022-10-13T02:54:10.382Z,0.00
2022-10-13T02:55:10.391Z,0.00
2022-10-13T02:56:10.385Z,0.00
2022-10-13T02:57:10.393Z,0.00
2022-10-13T02:58:10.362Z,0.00
2022-10-13T02:59:10.330Z,0.00
2022-10-13T03:00:10.326Z,0.00
2022-10-13T03:01:10.361Z,0.00
2022-10-13T03:02:10.292Z,0.00
2022-10-13T03:03:10.348Z,0.00
2022-10-13T03:04:10.287Z,0.00
2022-10-13T03:05:10.293Z,0.00
2022-10-13T03:06:10.259Z,0.00
2022-10-13T03:07:10.259Z,0.00
2022-10-13T03:08:10.268Z,0.00
2022-10-13T03:09:10.216Z,0.00
2022-10-13T03:10:10.218Z,0.00
2022-10-13T03:11:10.239Z,0.00
2022-10-13T03:12:10.249Z,0.00
2022-10-13T03:13:10.211Z,0.00
2022-10-13T03:14:10.169Z,0.00
2022-10-13T03:15:10.160Z,0.00
2022-10-13T03:16:10.180Z,0.00
2022-10-13T03:17:13.395Z,0.00
2022-10-13T03:18:10.151Z,0.00
2022-10-13T03:19:10.117Z,0.00
2022-10-13T03:20:10.111Z,0.00
2022-10-13T03:21:10.093Z,0.00
2022-10-13T03:22:10.081Z,0.00
2022-10-13T03:23:10.120Z,0.00
2022-10-13T03:24:10.110Z,0.00
2022-10-13T03:25:10.082Z,0.00
2022-10-13T03:26:10.042Z,0.00
2022-10-13T03:27:10.036Z,0.00
2022-10-13T03:28:09.999Z,0.00
2022-10-13T03:29:10.009Z,0.00
2022-10-13T03:30:10.010Z,0.00
2022-10-13T03:31:09.983Z,0.00
2022-10-13T03:32:09.950Z,0.00
2022-10-13T03:33:10.009Z,0.00
2022-10-13T03:34:09.950Z,0.00
2022-10-13T03:35:09.934Z,0.00
2022-10-13T03:36:09.900Z,0.00
2022-10-13T03:37:09.902Z,0.00
2022-10-13T03:38:09.925Z,0.00
2022-10-13T03:39:09.892Z,0.00
2022-10-13T03:40:09.887Z,0.00
2022-10-13T03:41:09.876Z,0.00
2022-10-13T03:42:09.846Z,0.00
2022-10-13T03:43:09.885Z,0.00
2022-10-13T03:44:09.813Z,0.00
2022-10-13T03:45:09.853Z,0.00
2022-10-13T03:46:09.807Z,0.00
2022-10-13T03:47:09.787Z,0.00
2022-10-13T03:48:09.788Z,0.00
2022-10-13T03:49:09.784Z,0.00
2022-10-13T03:50:09.764Z,0.00
2022-10-13T03:51:09.745Z,0.00
2022-10-13T03:52:09.770Z,0.00
2022-10-13T03:53:09.756Z,0.00
2022-10-13T03:54:09.695Z,0.00
2022-10-13T03:55:09.709Z,0.00
2022-10-13T03:56:09.697Z,0.00
2022-10-13T03:57:09.690Z,0.00
2022-10-13T03:58:09.690Z,0.00
2022-10-13T03:59:09.700Z,0.00
2022-10-13T04:00:09.626Z,0.00
2022-10-13T04:01:09.637Z,0.00
2022-10-13T04:02:09.631Z,0.00
2022-10-13T04:03:09.637Z,0.00
2022-10-13T04:04:09.642Z,0.00
2022-10-13T04:05:09.604Z,0.00
2022-10-13T04:06:09.593Z,0.00
2022-10-13T04:07:09.573Z,0.00
2022-10-13T04:08:09.572Z,0.00
2022-10-13T04:09:09.580Z,0.00
2022-10-13T04:10:11.517Z,0.00
2022-10-13T04:11:09.599Z,0.00
2022-10-13T04:12:09.499Z,0.00
2022-10-13T04:13:09.498Z,0.00
2022-10-13T04:14:09.502Z,0.00
2022-10-13T04:15:09.503Z,0.00
2022-10-13T04:16:09.507Z,0.00
2022-10-13T04:17:09.472Z,0.00
2022-10-13T04:18:09.431Z,0.00
2022-10-13T04:19:09.435Z,0.00
2022-10-13T04:20:09.441Z,0.00
2022-10-13T04:21:09.425Z,0.00
2022-10-13T04:22:09.402Z,0.00
2022-10-13T04:23:09.387Z,0.00
2022-10-13T04:24:09.396Z,0.00
2022-10-13T04:25:09.356Z,0.00
2022-10-13T04:26:09.333Z,0.00
2022-10-13T04:27:09.333Z,0.00
2022-10-13T04:28:09.327Z,0.00
2022-10-13T04:29:09.337Z,0.00
2022-10-13T04:30:11.504Z,0.00
2022-10-13T04:31:09.287Z,0.00
2022-10-13T04:32:09.307Z,0.00
2022-10-13T04:33:09.275Z,0.00
2022-10-13T04:34:09.266Z,0.00
2022-10-13T04:35:09.235Z,0.00
2022-10-13T04:36:09.216Z,0.00
2022-10-13T04:37:09.269Z,0.00
2022-10-13T04:38:09.206Z,0.00
2022-10-13T04:39:09.220Z,0.00
2022-10-13T04:40:09.179Z,0.00
2022-10-13T04:41:09.180Z,0.00
2022-10-13T04:42:09.146Z,0.00
2022-10-13T04:43:09.198Z,0.00
2022-10-13T04:44:09.161Z,0.00
2022-10-13T04:45:09.161Z,0.00
2022-10-13T04:46:09.141Z,0.00
2022-10-13T04:47:09.089Z,0.00
2022-10-13T04:48:09.077Z,0.00
2022-10-13T04:49:09.081Z,0.00
2022-10-13T04:50:09.072Z,0.00
2022-10-13T04:51:09.079Z,0.00
2022-10-13T04:52:09.064Z,0.00
2022-10-13T04:53:09.019Z,0.00
2022-10-13T04:54:09.010Z,0.00
2022-10-13T04:55:09.071Z,0.00
2022-10-13T04:56:09.023Z,0.00
2022-10-13T04:57:09.011Z,4.00
2022-10-13T04:58:08.990Z,4.00
2022-10-13T04:59:08.975Z,0.00
2022-10-13T05:00:08.961Z,0.00
2022-10-13T05:01:08.983Z,4.00
2022-10-13T05:02:08.921Z,4.00
2022-10-13T05:03:08.901Z,4.00
2022-10-13T05:04:08.956Z,4.00
2022-10-13T05:05:08.895Z,4.00
2022-10-13T05:06:08.902Z,4.00
2022-10-13T05:07:24.308Z,8.00
2022-10-13T05:08:09.852Z,8.00
2022-10-13T05:09:08.863Z,8.00
2022-10-13T05:10:08.824Z,8.00
2022-10-13T05:11:08.855Z,12.00
2022-10-13T05:12:08.833Z,16.00
2022-10-13T05:13:08.792Z,16.00
2022-10-13T05:14:08.793Z,16.00
2022-10-13T05:15:08.778Z,20.00
2022-10-13T05:16:08.794Z,28.00
2022-10-13T05:17:08.757Z,28.00
2022-10-13T05:18:08.761Z,36.00
2022-10-13T05:19:08.739Z,44.00
2022-10-13T05:20:08.765Z,52.00
2022-10-13T05:21:08.730Z,56.00
2022-10-13T05:22:08.696Z,68.00
2022-10-13T05:23:08.685Z,80.00
2022-10-13T05:24:08.688Z,96.00
2022-10-13T05:25:08.666Z,116.00
2022-10-13T05:26:08.711Z,136.00
2022-10-13T05:27:08.641Z,156.00
2022-10-13T05:28:08.675Z,180.00
2022-10-13T05:29:08.607Z,200.00
2022-10-13T05:30:08.608Z,220.00
2022-10-13T05:31:08.631Z,244.00
2022-10-13T05:32:08.578Z,264.00
2022-10-13T05:33:08.591Z,288.00
2022-10-13T05:34:08.591Z,312.00
2022-10-13T05:35:08.569Z,336.00
2022-10-13T05:36:08.528Z,364.00
2022-10-13T05:37:08.543Z,392.00
2022-10-13T05:38:08.546Z,412.00
2022-10-13T05:39:08.520Z,428.00
2022-10-13T05:40:08.493Z,456.00
2022-10-13T05:41:08.510Z,480.00
2022-10-13T05:42:09.459Z,488.00
2022-10-13T05:43:08.472Z,520.00
2022-10-13T05:44:08.455Z,572.00
2022-10-13T05:45:08.421Z,624.00
2022-10-13T05:46:08.444Z,652.00
2022-10-13T05:47:08.423Z,684.00
2022-10-13T05:48:08.422Z,728.00
2022-10-13T05:49:08.405Z,788.00
2022-10-13T05:50:08.386Z,852.00
2022-10-13T05:51:08.388Z,956.00
2022-10-13T05:52:08.357Z,1028.00
2022-10-13T05:53:08.352Z,1080.00
2022-10-13T05:54:08.337Z,1156.00
2022-10-13T05:55:08.314Z,1300.00
2022-10-13T05:56:08.512Z,1480.00
2022-10-13T05:57:08.297Z,1624.00
2022-10-13T05:58:08.274Z,1764.00
2022-10-13T05:59:08.308Z,1896.00
2022-10-13T06:00:08.679Z,2036.00
2022-10-13T06:01:08.299Z,2204.00
2022-10-13T06:02:08.285Z,2376.00
2022-10-13T06:03:08.238Z,2548.00
2022-10-13T06:04:08.467Z,2700.00
2022-10-13T06:05:08.225Z,2752.00
2022-10-13T06:06:08.193Z,2680.00
2022-10-13T06:07:08.166Z,2604.00
2022-10-13T06:08:08.180Z,2512.00
2022-10-13T06:09:08.406Z,2452.00
2022-10-13T06:10:08.137Z,2452.00
2022-10-13T06:11:08.176Z,2380.00
2022-10-13T06:12:08.144Z,2356.00
2022-10-13T06:13:08.117Z,2384.00
2022-10-13T06:14:08.122Z,2452.00
2022-10-13T06:15:08.173Z,2536.00
2022-10-13T06:16:08.098Z,2640.00
2022-10-13T06:17:08.092Z,2788.00
2022-10-13T06:18:08.083Z,3000.00
2022-10-13T06:19:08.053Z,3180.00
2022-10-13T06:20:08.058Z,3468.00
2022-10-13T06:21:08.048Z,4108.00
2022-10-13T06:22:08.009Z,4316.00
2022-10-13T06:23:08.025Z,4156.00
2022-10-13T06:24:07.970Z,4256.00
2022-10-13T06:25:07.986Z,4520.00
2022-10-13T06:26:07.970Z,4356.00
2022-10-13T06:27:07.983Z,3692.00
2022-10-13T06:28:07.976Z,3216.00
2022-10-13T06:29:07.982Z,2912.00
2022-10-13T06:30:07.925Z,2712.00
2022-10-13T06:31:08.921Z,2652.00
2022-10-13T06:32:07.914Z,2724.00
2022-10-13T06:33:07.914Z,2848.00
2022-10-13T06:34:07.856Z,2932.00
2022-10-13T06:35:07.903Z,3000.00
2022-10-13T06:36:07.856Z,3148.00
2022-10-13T06:37:07.846Z,3460.00
2022-10-13T06:38:07.857Z,3652.00
2022-10-13T06:39:07.816Z,3472.00
2022-10-13T06:40:07.838Z,3080.00
2022-10-13T06:41:07.801Z,2916.00
2022-10-13T06:42:07.795Z,3032.00
2022-10-13T06:43:07.769Z,3424.00
2022-10-13T06:44:07.794Z,3652.00
2022-10-13T06:45:07.736Z,3680.00
2022-10-13T06:46:07.778Z,3804.00
2022-10-13T06:47:07.780Z,3828.00
2022-10-13T06:48:07.719Z,3872.00
2022-10-13T06:49:07.696Z,3992.00
2022-10-13T06:50:07.712Z,4068.00
2022-10-13T06:51:07.711Z,4048.00
2022-10-13T06:52:09.272Z,4140.00
2022-10-13T06:53:07.637Z,4352.00
2022-10-13T06:54:07.644Z,4704.00
2022-10-13T06:55:07.702Z,5028.00
2022-10-13T06:56:07.628Z,5380.00
2022-10-13T06:57:08.367Z,5788.00
2022-10-13T06:58:07.618Z,6344.00
2022-10-13T06:59:07.600Z,6744.00
2022-10-13T07:00:07.585Z,6844.00
2022-10-13T07:01:07.624Z,6848.00
2022-10-13T07:02:07.570Z,6936.00
2022-10-13T07:03:07.529Z,7188.00
2022-10-13T07:04:07.565Z,7496.00
2022-10-13T07:05:07.524Z,7768.00
2022-10-13T07:06:07.503Z,8092.00
2022-10-13T07:07:07.575Z,8388.00
2022-10-13T07:08:07.483Z,8620.00
2022-10-13T07:09:07.474Z,8868.00
2022-10-13T07:10:07.523Z,9084.00
2022-10-13T07:11:10.505Z,9284.00
2022-10-13T07:12:08.453Z,9460.00
2022-10-13T07:13:07.418Z,9464.00
2022-10-13T07:14:07.444Z,9408.00
2022-10-13T07:15:07.446Z,9344.00
2022-10-13T07:16:07.405Z,9344.00
2022-10-13T07:17:07.430Z,9356.00
2022-10-13T07:18:07.761Z,9444.00
2022-10-13T07:19:07.376Z,9536.00
2022-10-13T07:20:07.645Z,9552.00
2022-10-13T07:21:07.356Z,9684.00
2022-10-13T07:22:07.414Z,9896.00
2022-10-13T07:23:07.344Z,9964.00
2022-10-13T07:24:07.315Z,9856.00
2022-10-13T07:25:07.285Z,9948.00
2022-10-13T07:26:07.529Z,10016.00
2022-10-13T07:27:08.005Z,9924.00
2022-10-13T07:28:07.290Z,9940.00
2022-10-13T07:29:07.260Z,10156.00
2022-10-13T07:30:07.235Z,10204.00
2022-10-13T07:31:07.261Z,10152.00
2022-10-13T07:32:07.232Z,9860.00
2022-10-13T07:33:07.269Z,9640.00
2022-10-13T07:34:07.231Z,9688.00
2022-10-13T07:35:07.169Z,9764.00
2022-10-13T07:36:07.171Z,9868.00
2022-10-13T07:37:07.149Z,9936.00
2022-10-13T07:38:07.172Z,10068.00
2022-10-13T07:39:07.180Z,10228.00
2022-10-13T07:40:07.152Z,10412.00
2022-10-13T07:41:07.138Z,10560.00
2022-10-13T07:42:07.111Z,10692.00
2022-10-13T07:43:07.083Z,10804.00
2022-10-13T07:44:07.595Z,10896.00
2022-10-13T07:45:07.407Z,10944.00
2022-10-13T07:46:07.112Z,10988.00
2022-10-13T07:47:07.093Z,10968.00
2022-10-13T07:48:07.053Z,10664.00
2022-10-13T07:49:07.053Z,10220.00
2022-10-13T07:50:07.009Z,10172.00
2022-10-13T07:51:07.047Z,9364.00
2022-10-13T07:52:06.999Z,7800.00
2022-10-13T07:53:07.014Z,6764.00
2022-10-13T07:54:07.323Z,6688.00
2022-10-13T07:55:06.943Z,7124.00
2022-10-13T07:56:06.936Z,7588.00
2022-10-13T07:57:06.956Z,8192.00
2022-10-13T07:58:06.922Z,8852.00
2022-10-13T07:59:06.995Z,9376.00
2022-10-13T08:00:07.261Z,9640.00
2022-10-13T08:01:06.928Z,9552.00
2022-10-13T08:02:06.874Z,9440.00
2022-10-13T08:03:07.856Z,9540.00
2022-10-13T08:04:06.940Z,9676.00
2022-10-13T08:05:06.834Z,9876.00
2022-10-13T08:06:06.841Z,10096.00
2022-10-13T08:07:06.841Z,10320.00
2022-10-13T08:08:06.814Z,10580.00
2022-10-13T08:09:06.929Z,10824.00
2022-10-13T08:10:06.817Z,11052.00
2022-10-13T08:11:06.815Z,11252.00
2022-10-13T08:12:06.777Z,11404.00
2022-10-13T08:13:06.771Z,11556.00
2022-10-13T08:14:06.743Z,11644.00
2022-10-13T08:15:06.867Z,11692.00
2022-10-13T08:16:06.738Z,11764.00
2022-10-13T08:17:06.713Z,11812.00
2022-10-13T08:18:06.738Z,11860.00
2022-10-13T08:19:06.742Z,11932.00
2022-10-13T08:20:06.684Z,11992.00
2022-10-13T08:22:09.767Z,12056.00
2022-10-13T08:23:06.660Z,12084.00
2022-10-13T08:24:06.669Z,12124.00
2022-10-13T08:25:06.632Z,12216.00
2022-10-13T08:26:06.834Z,12352.00
2022-10-13T08:27:06.581Z,12524.00
2022-10-13T08:28:06.583Z,12564.00
2022-10-13T08:29:23.430Z,12568.00
2022-10-13T08:30:07.640Z,12520.00
2022-10-13T08:31:06.752Z,12556.00
2022-10-13T08:32:06.594Z,12596.00
2022-10-13T08:33:06.513Z,12480.00
2022-10-13T08:34:06.519Z,12400.00
2022-10-13T08:35:06.527Z,12356.00
2022-10-13T08:36:06.551Z,12356.00
2022-10-13T08:37:06.484Z,12396.00
2022-10-13T08:38:06.478Z,12560.00
2022-10-13T08:39:06.467Z,12768.00
2022-10-13T08:40:06.820Z,12696.00
2022-10-13T08:41:06.426Z,12504.00
2022-10-13T08:42:06.415Z,12428.00
2022-10-13T08:43:06.430Z,12368.00
2022-10-13T08:45:40.505Z,12436.00
2022-10-13T08:46:07.406Z,12536.00
2022-10-13T08:47:06.383Z,12704.00
2022-10-13T08:48:06.448Z,12816.00
2022-10-13T08:49:06.351Z,13028.00
2022-10-13T08:50:06.320Z,13300.00
2022-10-13T08:51:06.369Z,13776.00
2022-10-13T08:52:06.308Z,14300.00
2022-10-13T08:53:06.302Z,14596.00
2022-10-13T08:54:06.300Z,15080.00
2022-10-13T08:55:06.324Z,15968.00
2022-10-13T08:56:06.302Z,16320.00
2022-10-13T08:57:06.265Z,16352.00
2022-10-13T08:58:07.285Z,16736.00
2022-10-13T08:59:06.270Z,16768.00
2022-10-13T09:00:06.224Z,16896.00
2022-10-13T09:01:06.266Z,17248.00
2022-10-13T09:02:06.207Z,16928.00
2022-10-13T09:03:06.202Z,16896.00
2022-10-13T09:04:06.245Z,16928.00
2022-10-13T09:05:06.372Z,16768.00
2022-10-13T09:06:06.158Z,16064.00
2022-10-13T09:07:06.172Z,15388.00
2022-10-13T09:08:06.136Z,15232.00
2022-10-13T09:09:06.105Z,14888.00
2022-10-13T09:10:06.127Z,14536.00
2022-10-13T09:11:06.076Z,14396.00
2022-10-13T09:12:06.502Z,14584.00
2022-10-13T09:13:06.108Z,14772.00
2022-10-13T09:14:06.066Z,15172.00
2022-10-13T09:15:06.062Z,16288.00
2022-10-13T09:16:06.025Z,16224.00
2022-10-13T09:17:06.085Z,15364.00
2022-10-13T09:18:09.277Z,15332.00
2022-10-13T09:19:06.029Z,15840.00
2022-10-13T09:20:05.984Z,17152.00
2022-10-13T09:21:06.010Z,17472.00
2022-10-13T09:22:05.958Z,15060.00
2022-10-13T09:23:05.964Z,14588.00
2022-10-13T09:24:05.985Z,14728.00
2022-10-13T09:25:05.964Z,14944.00
2022-10-13T09:26:06.006Z,15508.00
2022-10-13T09:27:05.970Z,15752.00
2022-10-13T09:28:05.903Z,15520.00
2022-10-13T09:29:05.919Z,15068.00
2022-10-13T09:30:05.895Z,14808.00
2022-10-13T09:31:09.148Z,14168.00
2022-10-13T09:32:06.873Z,13556.00
2022-10-13T09:33:05.904Z,13208.00
2022-10-13T09:34:05.842Z,13208.00
2022-10-13T09:35:05.824Z,13428.00
2022-10-13T09:36:05.815Z,13288.00
2022-10-13T09:37:05.813Z,13176.00
2022-10-13T09:38:06.095Z,13232.00
2022-10-13T09:39:05.879Z,13192.00
2022-10-13T09:40:06.138Z,13100.00
2022-10-13T09:41:05.810Z,13056.00
2022-10-13T09:42:05.764Z,12932.00
2022-10-13T09:43:05.736Z,12888.00
2022-10-13T09:44:05.749Z,12856.00
2022-10-13T09:45:05.710Z,12916.00
2022-10-13T09:46:05.769Z,12884.00
2022-10-13T09:47:05.719Z,13008.00
2022-10-13T09:48:05.679Z,13328.00
2022-10-13T09:49:05.678Z,13940.00
2022-10-13T09:50:07.485Z,13840.00
2022-10-13T09:51:05.639Z,14012.00
2022-10-13T09:52:06.002Z,13972.00
2022-10-13T09:53:05.630Z,14200.00
2022-10-13T09:54:05.643Z,13812.00
2022-10-13T09:55:05.609Z,14504.00
2022-10-13T09:56:05.593Z,14284.00
2022-10-13T09:57:05.590Z,14588.00
2022-10-13T09:58:05.568Z,15308.00
2022-10-13T09:59:05.533Z,16704.00
2022-10-13T10:00:05.595Z,17888.00
2022-10-13T10:01:05.567Z,18816.00
2022-10-13T10:02:05.563Z,19392.00
2022-10-13T10:03:06.544Z,19904.00
2022-10-13T10:04:05.533Z,20640.00
2022-10-13T10:05:05.495Z,19232.00
2022-10-13T10:06:05.505Z,17760.00
2022-10-13T10:07:05.502Z,18496.00
2022-10-13T10:08:05.452Z,18592.00
2022-10-13T10:09:05.572Z,19584.00
2022-10-13T10:10:05.450Z,20000.00
2022-10-13T10:11:05.470Z,20160.00
2022-10-13T10:12:05.538Z,21856.00
2022-10-13T10:13:05.404Z,22752.00
2022-10-13T10:14:05.417Z,23168.00
2022-10-13T10:15:05.355Z,25440.00
2022-10-13T10:16:05.356Z,31520.00
2022-10-13T10:17:05.349Z,30336.00
2022-10-13T10:18:05.345Z,28192.00
2022-10-13T10:19:05.339Z,37824.00
2022-10-13T10:20:06.020Z,42176.00
2022-10-13T10:21:05.349Z,46944.00
2022-10-13T10:22:05.286Z,51008.00
2022-10-13T10:23:05.306Z,43808.00
2022-10-13T10:24:05.296Z,35328.00
2022-10-13T10:25:05.309Z,37056.00
2022-10-13T10:26:05.278Z,39616.00
2022-10-13T10:27:05.311Z,40416.00
2022-10-13T10:28:05.216Z,42528.00
2022-10-13T10:29:05.231Z,39328.00
2022-10-13T10:30:05.252Z,45472.00
2022-10-13T10:31:05.183Z,46176.00
2022-10-13T10:32:05.173Z,41632.00
2022-10-13T10:33:05.196Z,51392.00
2022-10-13T10:34:05.142Z,56320.00
2022-10-13T10:35:05.178Z,56352.00
2022-10-13T10:36:05.134Z,59168.00
2022-10-13T10:37:05.156Z,61312.00
2022-10-13T10:38:05.267Z,55488.00
2022-10-13T10:39:05.102Z,50880.00
2022-10-13T10:40:05.147Z,51584.00
2022-10-13T10:41:05.078Z,53600.00
2022-10-13T10:42:05.387Z,52480.00
2022-10-13T10:43:05.070Z,39392.00
2022-10-13T10:44:05.034Z,48320.00
2022-10-13T10:45:06.050Z,51104.00
2022-10-13T10:46:05.036Z,50016.00
2022-10-13T10:47:05.026Z,48480.00
2022-10-13T10:48:05.010Z,40832.00
2022-10-13T10:49:04.988Z,36288.00
2022-10-13T10:50:05.463Z,39104.00
2022-10-13T10:51:05.032Z,35648.00
2022-10-13T10:52:04.968Z,35840.00
2022-10-13T10:53:04.969Z,23840.00
2022-10-13T10:54:05.981Z,20064.00
2022-10-13T10:55:04.963Z,15768.00
2022-10-13T10:56:04.920Z,14732.00
2022-10-13T10:57:04.920Z,14980.00
2022-10-13T10:58:04.900Z,16992.00
2022-10-13T10:59:04.911Z,16256.00
2022-10-13T11:00:04.880Z,17408.00
2022-10-13T11:01:04.871Z,19104.00
2022-10-13T11:02:04.862Z,24480.00
2022-10-13T11:03:04.839Z,39904.00
2022-10-13T11:04:04.828Z,32448.00
2022-10-13T11:05:06.369Z,28768.00
2022-10-13T11:06:04.827Z,39936.00
2022-10-13T11:07:04.804Z,27904.00
2022-10-13T11:08:04.775Z,17024.00
2022-10-13T11:09:04.755Z,36256.00
2022-10-13T11:10:04.780Z,25856.00
2022-10-13T11:11:04.746Z,46336.00
2022-10-13T11:12:04.747Z,44672.00
2022-10-13T11:13:04.722Z,27104.00
2022-10-13T11:14:04.768Z,32544.00
2022-10-13T11:15:04.749Z,33408.00
2022-10-13T11:16:04.691Z,47680.00
2022-10-13T11:17:04.693Z,43776.00
2022-10-13T11:18:04.658Z,43008.00
2022-10-13T11:19:04.672Z,42688.00
2022-10-13T11:20:04.673Z,45984.00
2022-10-13T11:21:04.671Z,47168.00
2022-10-13T11:22:04.637Z,48640.00
2022-10-13T11:23:04.611Z,45920.00
2022-10-13T11:24:04.655Z,29888.00
2022-10-13T11:25:04.614Z,43680.00
2022-10-13T11:26:04.591Z,45984.00
2022-10-13T11:27:04.562Z,51232.00
2022-10-13T11:28:04.583Z,50912.00
2022-10-13T11:29:04.579Z,52128.00
2022-10-13T11:30:04.541Z,52736.00
2022-10-13T11:31:04.517Z,52512.00
2022-10-13T11:32:04.528Z,48832.00
2022-10-13T11:33:04.533Z,48416.00
2022-10-13T11:34:04.483Z,41920.00
2022-10-13T11:35:04.497Z,39680.00
2022-10-13T11:36:04.457Z,45216.00
2022-10-13T11:37:04.456Z,50816.00
2022-10-13T11:38:08.404Z,49600.00
2022-10-13T11:39:05.457Z,43808.00
2022-10-13T11:40:04.501Z,38528.00
2022-10-13T11:41:04.451Z,29152.00
2022-10-13T11:42:04.401Z,10568.00
2022-10-13T11:43:05.274Z,10948.00
2022-10-13T11:44:04.422Z,11864.00
2022-10-13T11:45:04.419Z,10012.00
2022-10-13T11:46:04.361Z,21664.00
2022-10-13T11:47:04.370Z,12316.00
2022-10-13T11:48:04.384Z,9696.00
2022-10-13T11:49:04.337Z,8396.00
2022-10-13T11:50:04.381Z,10924.00
2022-10-13T11:51:04.316Z,16480.00
2022-10-13T11:52:04.296Z,10640.00
2022-10-13T11:53:04.262Z,9528.00
2022-10-13T11:54:04.283Z,10736.00
2022-10-13T11:55:04.283Z,8492.00
2022-10-13T11:56:04.264Z,9608.00
2022-10-13T11:57:04.235Z,10504.00
2022-10-13T11:58:04.250Z,17056.00
2022-10-13T11:59:04.204Z,15332.00
2022-10-13T12:00:04.203Z,18688.00
2022-10-13T12:01:04.196Z,19552.00
2022-10-13T12:02:04.214Z,18080.00
2022-10-13T12:03:04.239Z,16320.00
2022-10-13T12:04:04.147Z,16576.00
2022-10-13T12:05:04.170Z,15252.00
2022-10-13T12:06:04.143Z,11148.00
2022-10-13T12:07:04.150Z,10828.00
2022-10-13T12:08:04.151Z,15148.00
2022-10-13T12:09:04.088Z,11052.00
2022-10-13T12:10:04.105Z,16672.00
2022-10-13T12:11:04.094Z,11760.00
2022-10-13T12:12:04.052Z,22112.00
2022-10-13T12:13:04.100Z,29312.00
2022-10-13T12:14:04.039Z,27904.00
2022-10-13T12:15:07.004Z,30464.00
2022-10-13T12:16:04.026Z,30400.00
2022-10-13T12:17:04.015Z,31904.00
2022-10-13T12:18:04.045Z,32160.00
2022-10-13T12:19:03.974Z,34656.00
2022-10-13T12:20:03.990Z,45216.00
2022-10-13T12:21:03.958Z,39136.00
2022-10-13T12:22:03.986Z,25216.00
2022-10-13T12:23:04.000Z,18848.00
2022-10-13T12:24:03.925Z,17568.00
2022-10-13T12:25:03.937Z,15328.00
2022-10-13T12:26:03.927Z,14044.00
2022-10-13T12:27:03.946Z,13068.00
2022-10-13T12:28:03.886Z,12728.00
2022-10-13T12:29:03.910Z,12124.00